Time;durP1;ratioP1;P1;durP2;ratioP2;P2;SDS_P1;SDS_P2;PMS_P1;PMS_P2;Temp;Humidity;BMP_temperature;BMP_pressure;BME280_temperature;BME280_humidity;BME280_pressure;Samples;Min_cycle;Max_cycle;Signal;HPM_P1;HPM_P2
2021/05/30 00:01:08;;;;;;;7.13;4.73;;;;;;;;;;4950150;28;20428;-74
2021/05/30 00:03:33;;;;;;;6.83;4.43;;;;;;;;;;4950451;28;20038;-74
2021/05/30 00:05:59;;;;;;;7.57;4.43;;;;;;;;;;4950115;29;20027;-73
2021/05/30 00:08:25;;;;;;;8.93;5.07;;;;;;;;;;4950582;28;20487;-74
2021/05/30 00:10:52;;;;;;;7.63;5.13;;;;;;;;;;4953208;28;20047;-74
2021/05/30 00:13:21;;;;;;;7.23;4.53;;;;;;;;;;4953689;28;20121;-75
2021/05/30 00:15:47;;;;;;;8.33;4.63;;;;;;;;;;4953740;29;20027;-74
2021/05/30 00:18:13;;;;;;;8.87;5.37;;;;;;;;;;4969605;28;20459;-74
2021/05/30 00:20:38;;;;;;;9.33;5.07;;;;;;;;;;4969801;28;20532;-75
2021/05/30 00:23:04;;;;;;;8.50;5.27;;;;;;;;;;4953618;28;20118;-75
2021/05/30 00:25:29;;;;;;;9.13;5.60;;;;;;;;;;4954117;28;20475;-74
2021/05/30 00:27:55;;;;;;;8.73;5.70;;;;;;;;;;4955019;28;20024;-75
2021/05/30 00:30:21;;;;;;;11.10;5.70;;;;;;;;;;4953542;29;20023;-73
2021/05/30 00:32:47;;;;;;;6.97;5.17;;;;;;;;;;4954840;28;20059;-74
2021/05/30 00:35:13;;;;;;;8.93;5.77;;;;;;;;;;4954684;28;20486;-74
2021/05/30 00:37:38;;;;;;;8.80;5.60;;;;;;;;;;4954746;28;20054;-74
2021/05/30 00:40:04;;;;;;;10.77;6.10;;;;;;;;;;4954620;28;20031;-74
2021/05/30 00:42:30;;;;;;;8.60;5.53;;;;;;;;;;4954513;28;20463;-74
2021/05/30 00:44:55;;;;;;;11.33;6.13;;;;;;;;;;4954468;28;20027;-75
2021/05/30 00:47:21;;;;;;;13.73;6.20;;;;;;;;;;4955174;28;20020;-73
2021/05/30 00:49:47;;;;;;;11.03;6.07;;;;;;;;;;4953386;28;20388;-73
2021/05/30 00:52:13;;;;;;;14.73;7.30;;;;;;;;;;4953369;28;20035;-74
2021/05/30 00:54:39;;;;;;;13.17;6.97;;;;;;;;;;4953245;28;20166;-73
2021/05/30 00:57:11;;;;;;;10.97;6.37;;;;;;;;;;4953323;28;20034;-74
2021/05/30 00:59:37;;;;;;;13.00;6.55;;;;;;;;;;4969129;28;20026;-73
2021/05/30 01:02:03;;;;;;;9.33;5.40;;;;;;;;;;4969335;28;20042;-74
2021/05/30 01:04:29;;;;;;;7.83;5.90;;;;;;;;;;4954596;28;20031;-74
2021/05/30 01:06:57;;;;;;;13.07;6.30;;;;;;;;;;4953484;28;20034;-74
2021/05/30 01:09:25;;;;;;;12.17;5.97;;;;;;;;;;4954528;28;20020;-74
2021/05/30 01:11:51;;;;;;;11.37;6.37;;;;;;;;;;4954545;28;20504;-74
2021/05/30 01:14:17;;;;;;;11.13;6.00;;;;;;;;;;4968927;28;20039;-74
2021/05/30 01:16:43;;;;;;;13.17;6.43;;;;;;;;;;4954059;28;20027;-74
2021/05/30 01:19:10;;;;;;;9.70;6.10;;;;;;;;;;4954281;28;20023;-74
2021/05/30 01:21:36;;;;;;;10.07;6.53;;;;;;;;;;4954113;28;20480;-75
2021/05/30 01:24:01;;;;;;;13.47;6.20;;;;;;;;;;4953965;28;20025;-74
2021/05/30 01:26:27;;;;;;;12.83;6.23;;;;;;;;;;4952897;28;20479;-73
2021/05/30 01:28:53;;;;;;;8.73;5.80;;;;;;;;;;4936558;28;20464;-74
2021/05/30 01:31:20;;;;;;;10.87;6.03;;;;;;;;;;4952348;28;20094;-74
2021/05/30 01:33:45;;;;;;;9.90;5.70;;;;;;;;;;4954051;28;20031;-74
2021/05/30 01:36:12;;;;;;;9.13;5.20;;;;;;;;;;4954004;28;20034;-73
2021/05/30 01:38:38;;;;;;;11.70;5.13;;;;;;;;;;4968509;28;20559;-74
2021/05/30 01:41:05;;;;;;;8.03;5.83;;;;;;;;;;4952613;29;20027;-74
2021/05/30 01:43:31;;;;;;;11.07;6.20;;;;;;;;;;4952809;28;20138;-74
2021/05/30 01:45:57;;;;;;;11.30;5.30;;;;;;;;;;4953623;28;20539;-72
2021/05/30 01:48:22;;;;;;;9.23;5.43;;;;;;;;;;4953783;28;20034;-72
2021/05/30 01:50:48;;;;;;;11.70;6.07;;;;;;;;;;4968624;28;20069;-75
2021/05/30 01:53:15;;;;;;;11.17;5.93;;;;;;;;;;4968644;28;20062;-74
2021/05/30 01:56:55;;;;;;;8.37;5.37;;;;;;;;;;4952710;29;20118;-73
2021/05/30 01:58:43;;;;;;;8.33;5.33;;;;;;;;;;4953403;29;20522;-74
2021/05/30 02:01:14;;;;;;;7.27;5.03;;;;;;;;;;4951900;28;20027;-75
2021/05/30 02:03:43;;;;;;;9.05;5.63;;;;;;;;;;4951915;28;20023;-74
2021/05/30 02:06:09;;;;;;;10.17;5.17;;;;;;;;;;4967812;28;20027;-74
2021/05/30 02:08:38;;;;;;;9.47;5.37;;;;;;;;;;4953049;28;20078;-74
2021/05/30 02:11:08;;;;;;;7.47;4.70;;;;;;;;;;4951790;28;20057;-74
2021/05/30 02:13:34;;;;;;;7.63;4.80;;;;;;;;;;4952022;29;20062;-75
2021/05/30 02:16:00;;;;;;;6.90;4.83;;;;;;;;;;4951549;29;20035;-75
2021/05/30 02:18:25;;;;;;;10.23;5.83;;;;;;;;;;4967942;28;20118;-74
2021/05/30 02:20:52;;;;;;;7.97;4.87;;;;;;;;;;4967973;28;20062;-74
2021/05/30 02:23:18;;;;;;;9.47;5.97;;;;;;;;;;4951311;29;20027;-74
2021/05/30 02:25:44;;;;;;;9.00;5.40;;;;;;;;;;4951839;28;20038;-74
2021/05/30 02:28:11;;;;;;;8.37;5.43;;;;;;;;;;4967675;28;20019;-73
2021/05/30 02:30:36;;;;;;;9.00;5.23;;;;;;;;;;4952945;28;20501;-73
2021/05/30 02:33:03;;;;;;;10.37;5.93;;;;;;;;;;4966944;28;20134;-73
2021/05/30 02:35:29;;;;;;;10.43;5.87;;;;;;;;;;4952766;28;20027;-73
2021/05/30 02:37:55;;;;;;;12.13;6.27;;;;;;;;;;4952703;29;20503;-74
2021/05/30 02:40:21;;;;;;;16.37;7.33;;;;;;;;;;4952796;28;20027;-73
2021/05/30 02:42:46;;;;;;;16.80;7.70;;;;;;;;;;4952389;28;20047;-73
2021/05/30 02:45:12;;;;;;;14.77;7.30;;;;;;;;;;4952467;28;20034;-74
2021/05/30 02:47:38;;;;;;;11.73;7.07;;;;;;;;;;4952658;28;20023;-72
2021/05/30 02:50:04;;;;;;;12.53;6.90;;;;;;;;;;4966936;28;20050;-75
2021/05/30 02:52:30;;;;;;;16.07;7.63;;;;;;;;;;4952527;28;20106;-74
2021/05/30 02:54:56;;;;;;;11.27;6.47;;;;;;;;;;4951121;28;20117;-75
2021/05/30 02:57:21;;;;;;;11.90;6.93;;;;;;;;;;4951068;28;20090;-74
2021/05/30 02:59:47;;;;;;;14.23;7.13;;;;;;;;;;4952350;28;20112;-74
2021/05/30 03:02:12;;;;;;;9.60;6.30;;;;;;;;;;4950792;28;20082;-74
2021/05/30 03:04:38;;;;;;;11.20;6.07;;;;;;;;;;4951222;28;20504;-74
2021/05/30 03:07:03;;;;;;;10.63;6.07;;;;;;;;;;4952055;28;20023;-74
2021/05/30 03:09:29;;;;;;;12.10;6.03;;;;;;;;;;4952346;28;20027;-74
2021/05/30 03:11:55;;;;;;;10.67;6.67;;;;;;;;;;4967059;28;20118;-74
2021/05/30 03:14:20;;;;;;;11.00;6.97;;;;;;;;;;4952348;28;20031;-74
2021/05/30 03:16:46;;;;;;;12.30;6.73;;;;;;;;;;4952414;28;20039;-74
2021/05/30 03:19:11;;;;;;;11.80;6.37;;;;;;;;;;4950595;28;20678;-75
2021/05/30 03:21:39;;;;;;;11.13;5.77;;;;;;;;;;4952158;28;20035;-76
2021/05/30 03:24:06;;;;;;;8.93;6.27;;;;;;;;;;4950469;29;20031;-74
2021/05/30 03:26:33;;;;;;;9.80;6.13;;;;;;;;;;4950987;28;20420;-75
2021/05/30 03:28:58;;;;;;;10.87;5.30;;;;;;;;;;4950600;29;20473;-74
2021/05/30 03:31:24;;;;;;;9.33;5.33;;;;;;;;;;4950768;29;20042;-74
2021/05/30 03:33:50;;;;;;;14.93;6.43;;;;;;;;;;4950706;29;20027;-73
2021/05/30 03:36:19;;;;;;;10.57;5.63;;;;;;;;;;4950526;28;20039;-73
2021/05/30 03:38:45;;;;;;;8.93;5.90;;;;;;;;;;4951959;28;20031;-73
2021/05/30 03:41:13;;;;;;;8.30;5.87;;;;;;;;;;4951859;28;20031;-73
2021/05/30 03:43:41;;;;;;;11.83;6.53;;;;;;;;;;4965794;28;20102;-74
2021/05/30 03:46:06;;;;;;;14.37;6.37;;;;;;;;;;4951422;28;20090;-74
2021/05/30 03:48:32;;;;;;;9.73;5.37;;;;;;;;;;4969343;28;20428;-74
2021/05/30 03:50:57;;;;;;;10.20;6.53;;;;;;;;;;4954333;28;20288;-76
2021/05/30 03:53:23;;;;;;;8.80;6.27;;;;;;;;;;4954452;28;20031;-73
2021/05/30 03:55:49;;;;;;;9.87;6.80;;;;;;;;;;4953221;29;20114;-74
2021/05/30 03:58:16;;;;;;;10.03;6.10;;;;;;;;;;4953119;28;20051;-74
2021/05/30 04:00:41;;;;;;;9.87;6.77;;;;;;;;;;4952939;29;20522;-75
2021/05/30 04:03:08;;;;;;;14.40;7.10;;;;;;;;;;4953926;28;20051;-72
2021/05/30 04:05:34;;;;;;;12.00;7.33;;;;;;;;;;4960091;28;20035;-74
2021/05/30 04:07:59;;;;;;;15.33;7.37;;;;;;;;;;4957769;28;20042;-73
2021/05/30 04:10:25;;;;;;;18.87;11.30;;;;;;;;;;4954917;28;20492;-75
2021/05/30 04:12:51;;;;;;;9.77;6.63;;;;;;;;;;4968983;28;20451;-75
2021/05/30 04:15:17;;;;;;;12.40;7.87;;;;;;;;;;4954113;28;20031;-73
2021/05/30 04:17:44;;;;;;;11.33;7.90;;;;;;;;;;4952767;28;20035;-73
2021/05/30 04:20:13;;;;;;;11.13;7.03;;;;;;;;;;4954237;29;20029;-74
2021/05/30 04:22:40;;;;;;;14.43;7.10;;;;;;;;;;4954299;28;20027;-74
2021/05/30 04:25:07;;;;;;;14.07;6.90;;;;;;;;;;4954017;28;20035;-73
2021/05/30 04:27:32;;;;;;;16.33;8.10;;;;;;;;;;4954322;28;20034;-73
2021/05/30 04:29:59;;;;;;;14.97;8.23;;;;;;;;;;4952533;28;20031;-74
2021/05/30 04:32:25;;;;;;;10.20;7.00;;;;;;;;;;4953824;29;20178;-74
2021/05/30 04:34:50;;;;;;;9.93;7.10;;;;;;;;;;4968839;28;20603;-73
2021/05/30 04:37:16;;;;;;;11.73;7.33;;;;;;;;;;4953712;28;20035;-75
2021/05/30 04:39:41;;;;;;;9.73;7.10;;;;;;;;;;4953644;28;20062;-75
2021/05/30 04:42:08;;;;;;;11.73;7.40;;;;;;;;;;4903606;28;1451925;-73
2021/05/30 04:44:34;;;;;;;11.70;6.50;;;;;;;;;;4953594;28;20035;-73
2021/05/30 04:46:59;;;;;;;11.40;6.47;;;;;;;;;;4954542;28;20231;-75
2021/05/30 04:49:25;;;;;;;12.23;7.53;;;;;;;;;;4969351;28;20069;-74
2021/05/30 04:51:51;;;;;;;11.50;6.93;;;;;;;;;;4953363;29;20047;-74
2021/05/30 04:54:16;;;;;;;8.57;6.10;;;;;;;;;;4952928;29;20117;-74
2021/05/30 04:56:42;;;;;;;12.13;6.80;;;;;;;;;;4953652;28;20031;-74
2021/05/30 04:59:07;;;;;;;9.93;6.47;;;;;;;;;;4952948;28;20118;-74
2021/05/30 05:01:33;;;;;;;12.20;7.63;;;;;;;;;;4953405;28;20151;-74
2021/05/30 05:03:58;;;;;;;10.87;5.93;;;;;;;;;;4969309;28;20090;-74
2021/05/30 05:06:24;;;;;;;10.93;6.97;;;;;;;;;;4969396;28;20038;-75
2021/05/30 05:08:50;;;;;;;12.23;7.27;;;;;;;;;;4953408;29;20031;-74
2021/05/30 05:11:16;;;;;;;11.13;6.87;;;;;;;;;;4969255;28;20566;-75
2021/05/30 05:13:41;;;;;;;9.73;6.43;;;;;;;;;;4954542;28;20031;-78
2021/05/30 05:16:07;;;;;;;10.83;6.60;;;;;;;;;;4952611;29;20031;-78
2021/05/30 05:18:33;;;;;;;13.57;7.20;;;;;;;;;;4953974;28;20033;-77
2021/05/30 05:21:00;;;;;;;9.23;6.30;;;;;;;;;;4952223;28;20114;-77
2021/05/30 05:23:26;;;;;;;11.23;6.87;;;;;;;;;;4954110;28;20031;-76
2021/05/30 05:25:54;;;;;;;11.73;6.87;;;;;;;;;;4952540;28;20376;-78
2021/05/30 05:28:21;;;;;;;14.50;6.90;;;;;;;;;;4953538;28;20029;-78
2021/05/30 05:30:47;;;;;;;12.07;7.03;;;;;;;;;;4968999;28;20542;-78
2021/05/30 05:33:13;;;;;;;10.77;6.93;;;;;;;;;;4968452;28;20031;-78
2021/05/30 05:35:39;;;;;;;10.93;7.03;;;;;;;;;;4952149;29;20502;-80
2021/05/30 05:38:04;;;;;;;11.43;6.80;;;;;;;;;;4953278;28;20392;-78
2021/05/30 05:40:30;;;;;;;10.90;6.80;;;;;;;;;;4952164;28;20031;-79
2021/05/30 05:42:56;;;;;;;10.07;7.37;;;;;;;;;;4953030;28;20059;-79
2021/05/30 05:45:23;;;;;;;8.97;6.23;;;;;;;;;;4951870;28;20050;-79
2021/05/30 05:47:50;;;;;;;11.50;6.73;;;;;;;;;;4953414;28;20033;-78
2021/05/30 05:50:18;;;;;;;12.67;7.07;;;;;;;;;;4953233;28;20038;-78
2021/05/30 05:52:44;;;;;;;11.20;6.43;;;;;;;;;;4968243;28;20267;-77
2021/05/30 05:55:11;;;;;;;9.97;6.60;;;;;;;;;;4952696;28;20050;-79
2021/05/30 05:57:38;;;;;;;11.77;6.73;;;;;;;;;;4953194;28;20046;-76
2021/05/30 06:00:05;;;;;;;8.60;5.90;;;;;;;;;;4951265;29;20487;-78
2021/05/30 06:02:31;;;;;;;9.57;6.53;;;;;;;;;;4951458;28;20119;-77
2021/05/30 06:04:56;;;;;;;9.27;5.77;;;;;;;;;;4952655;28;20113;-76
2021/05/30 06:07:22;;;;;;;9.73;6.37;;;;;;;;;;4968879;28;20093;-78
2021/05/30 06:09:48;;;;;;;10.43;5.73;;;;;;;;;;4969299;28;20101;-78
2021/05/30 06:12:14;;;;;;;8.37;6.37;;;;;;;;;;4967303;28;20449;-78
2021/05/30 06:14:40;;;;;;;9.00;6.17;;;;;;;;;;4952598;28;20054;-78
2021/05/30 06:17:06;;;;;;;8.23;5.83;;;;;;;;;;4951000;29;20058;-78
2021/05/30 06:19:32;;;;;;;6.67;5.03;;;;;;;;;;4951106;29;20041;-78
2021/05/30 06:21:58;;;;;;;10.40;6.07;;;;;;;;;;4952276;28;20032;-78
2021/05/30 06:24:24;;;;;;;8.50;5.53;;;;;;;;;;4952968;28;20035;-78
2021/05/30 06:26:53;;;;;;;8.57;5.93;;;;;;;;;;4968193;28;20142;-79
2021/05/30 06:29:19;;;;;;;6.53;5.60;;;;;;;;;;4951978;28;20023;-79
2021/05/30 06:31:44;;;;;;;9.30;5.13;;;;;;;;;;4952829;29;20031;-78
2021/05/30 06:34:14;;;;;;;6.73;5.47;;;;;;;;;;4953290;28;20035;-79
2021/05/30 06:36:44;;;;;;;7.03;5.30;;;;;;;;;;4938358;29;20086;-73
2021/05/30 06:39:10;;;;;;;6.27;4.67;;;;;;;;;;4967728;28;20166;-73
2021/05/30 06:41:38;;;;;;;7.07;5.53;;;;;;;;;;4967707;28;20030;-72
2021/05/30 06:44:06;;;;;;;8.93;5.13;;;;;;;;;;4936586;29;20062;-74
2021/05/30 06:46:33;;;;;;;9.17;5.87;;;;;;;;;;4951601;28;20031;-73
2021/05/30 06:48:59;;;;;;;6.53;4.87;;;;;;;;;;4952673;28;20098;-73
2021/05/30 06:51:32;;;;;;;12.13;5.87;;;;;;;;;;4953392;28;20233;-75
2021/05/30 06:54:03;;;;;;;6.77;5.07;;;;;;;;;;4953434;28;20387;-75
2021/05/30 06:56:29;;;;;;;7.03;5.22;;;;;;;;;;4953986;28;20023;-73
2021/05/30 06:58:56;;;;;;;7.60;5.90;;;;;;;;;;4952047;29;20037;-74
2021/05/30 07:01:22;;;;;;;8.07;5.83;;;;;;;;;;4951104;29;20039;-74
2021/05/30 07:03:49;;;;;;;8.13;5.90;;;;;;;;;;4950869;28;20574;-72
2021/05/30 07:06:15;;;;;;;9.90;5.73;;;;;;;;;;4952117;28;20087;-74
2021/05/30 07:08:41;;;;;;;7.53;6.17;;;;;;;;;;4951853;28;20027;-74
2021/05/30 07:11:08;;;;;;;9.70;7.30;;;;;;;;;;4951822;28;20023;-74
2021/05/30 07:13:34;;;;;;;11.60;6.30;;;;;;;;;;4952003;28;20110;-73
2021/05/30 07:15:59;;;;;;;8.17;6.23;;;;;;;;;;4951594;28;20154;-73
2021/05/30 07:18:25;;;;;;;9.33;5.87;;;;;;;;;;4966814;28;20086;-73
2021/05/30 07:20:53;;;;;;;7.97;5.60;;;;;;;;;;4951992;28;20031;-74
2021/05/30 07:23:19;;;;;;;7.30;5.90;;;;;;;;;;4951985;28;20023;-73
2021/05/30 07:25:45;;;;;;;6.33;5.57;;;;;;;;;;4952159;28;20431;-74
2021/05/30 07:28:11;;;;;;;7.97;5.93;;;;;;;;;;4950480;28;20031;-75
2021/05/30 07:30:37;;;;;;;8.13;5.50;;;;;;;;;;4966891;28;20551;-74
2021/05/30 07:33:03;;;;;;;7.50;5.60;;;;;;;;;;4951857;28;20026;-75
2021/05/30 07:35:30;;;;;;;9.43;6.93;;;;;;;;;;4951863;28;20031;-76
2021/05/30 07:37:58;;;;;;;8.50;6.33;;;;;;;;;;4950333;29;20476;-74
2021/05/30 07:40:25;;;;;;;11.40;6.30;;;;;;;;;;4966344;28;20058;-75
2021/05/30 07:42:50;;;;;;;9.30;6.30;;;;;;;;;;4966349;28;20053;-75
2021/05/30 07:45:18;;;;;;;9.17;7.13;;;;;;;;;;4950607;28;20039;-75
2021/05/30 07:47:44;;;;;;;9.27;6.20;;;;;;;;;;4951869;29;20027;-75
2021/05/30 07:50:10;;;;;;;8.47;6.20;;;;;;;;;;4951434;28;20098;-74
2021/05/30 07:52:37;;;;;;;7.73;6.63;;;;;;;;;;4950675;28;20126;-73
2021/05/30 07:55:04;;;;;;;8.23;5.30;;;;;;;;;;4950319;28;20440;-74
2021/05/30 07:57:30;;;;;;;8.57;5.70;;;;;;;;;;4950628;28;20034;-75
2021/05/30 07:59:56;;;;;;;6.87;5.33;;;;;;;;;;4951205;28;20024;-74
2021/05/30 08:02:22;;;;;;;6.60;5.53;;;;;;;;;;4966351;28;20050;-75
2021/05/30 08:04:48;;;;;;;6.03;5.43;;;;;;;;;;4966633;28;20027;-73
2021/05/30 08:07:13;;;;;;;7.80;6.13;;;;;;;;;;4951572;28;20034;-74
2021/05/30 08:09:39;;;;;;;9.23;5.50;;;;;;;;;;4950254;29;20352;-74
2021/05/30 08:12:05;;;;;;;5.90;5.27;;;;;;;;;;4951522;28;20032;-75
2021/05/30 08:14:30;;;;;;;5.63;4.87;;;;;;;;;;4951415;29;20147;-74
2021/05/30 08:16:57;;;;;;;6.83;5.10;;;;;;;;;;4950851;29;20167;-73
2021/05/30 08:19:23;;;;;;;7.90;5.27;;;;;;;;;;4952643;29;20085;-73
2021/05/30 08:21:49;;;;;;;8.27;5.27;;;;;;;;;;4952624;28;20484;-74
2021/05/30 08:24:15;;;;;;;8.93;5.60;;;;;;;;;;4967906;28;20031;-73
2021/05/30 08:26:41;;;;;;;6.20;5.60;;;;;;;;;;4934308;29;20512;-75
2021/05/30 08:29:06;;;;;;;6.33;5.67;;;;;;;;;;4966082;28;20087;-74
2021/05/30 08:31:32;;;;;;;8.07;5.40;;;;;;;;;;4950875;28;20050;-73
2021/05/30 08:33:57;;;;;;;6.23;5.27;;;;;;;;;;4954882;28;20035;-74
2021/05/30 08:36:23;;;;;;;7.50;5.17;;;;;;;;;;4954410;28;20038;-74
2021/05/30 08:38:48;;;;;;;5.47;4.63;;;;;;;;;;4969306;28;20050;-74
2021/05/30 08:41:20;;;;;;;6.00;4.30;;;;;;;;;;4968983;28;20435;-75
2021/05/30 08:43:46;;;;;;;6.78;5.15;;;;;;;;;;4954176;29;20058;-75
2021/05/30 08:46:11;;;;;;;7.90;4.72;;;;;;;;;;4952842;28;20035;-74
2021/05/30 08:48:37;;;;;;;6.40;4.60;;;;;;;;;;4954535;28;20034;-74
2021/05/30 08:51:04;;;;;;;5.13;4.47;;;;;;;;;;4953161;29;20059;-73
2021/05/30 08:53:35;;;;;;;7.93;4.90;;;;;;;;;;4954623;28;20362;-75
2021/05/30 08:56:01;;;;;;;5.22;4.07;;;;;;;;;;4953124;28;20045;-75
2021/05/30 08:58:42;;;;;;;5.05;4.38;;;;;;;;;;4953129;28;20042;-73
2021/05/30 09:01:16;;;;;;;6.75;4.80;;;;;;;;;;4954560;28;20090;-73
2021/05/30 09:04:09;;;;;;;6.03;4.13;;;;;;;;;;4953343;28;20061;-75
2021/05/30 09:06:44;;;;;;;4.72;4.18;;;;;;;;;;4952817;29;20066;-74
2021/05/30 09:09:11;;;;;;;7.93;4.60;;;;;;;;;;4954118;29;20045;-75
2021/05/30 09:11:38;;;;;;;5.05;4.50;;;;;;;;;;4952916;29;20042;-76
2021/05/30 09:14:05;;;;;;;5.55;3.42;;;;;;;;;;4969013;28;20510;-75
2021/05/30 09:16:58;;;;;;;5.20;4.13;;;;;;;;;;4954187;28;20094;-76
2021/05/30 09:19:32;;;;;;;6.15;4.40;;;;;;;;;;4968741;28;20078;-74
2021/05/30 09:22:18;;;;;;;5.35;4.65;;;;;;;;;;4952595;28;20031;-75
2021/05/30 09:24:49;;;;;;;5.95;4.85;;;;;;;;;;4968830;28;20027;-73
2021/05/30 09:27:15;;;;;;;7.70;4.70;;;;;;;;;;4952724;28;20030;-76
2021/05/30 09:29:41;;;;;;;4.40;3.92;;;;;;;;;;4954055;28;20607;-74
2021/05/30 09:32:07;;;;;;;7.10;3.88;;;;;;;;;;4968531;28;20025;-75
2021/05/30 09:34:34;;;;;;;5.20;3.60;;;;;;;;;;4953897;28;20509;-75
2021/05/30 09:37:00;;;;;;;4.13;3.05;;;;;;;;;;4952787;29;20027;-73
2021/05/30 09:39:42;;;;;;;3.90;3.08;;;;;;;;;;4953858;28;20380;-75
2021/05/30 09:42:25;;;;;;;3.47;3.08;;;;;;;;;;4952054;28;20055;-74
2021/05/30 09:45:10;;;;;;;3.50;3.20;;;;;;;;;;4952189;28;20740;-75
2021/05/30 09:47:37;;;;;;;2.83;2.30;;;;;;;;;;4953903;28;20105;-75
2021/05/30 09:50:07;;;;;;;3.97;2.35;;;;;;;;;;4968547;28;20126;-75
2021/05/30 09:52:37;;;;;;;2.75;2.22;;;;;;;;;;4952630;28;20041;-75
2021/05/30 09:55:12;;;;;;;6.97;3.25;;;;;;;;;;4952112;29;20447;-75
2021/05/30 09:57:37;;;;;;;5.53;3.03;;;;;;;;;;4952065;28;20198;-74
2021/05/30 10:00:03;;;;;;;4.22;2.80;;;;;;;;;;4953171;28;20102;-75
2021/05/30 10:02:31;;;;;;;4.05;3.05;;;;;;;;;;4951807;28;20054;-74
2021/05/30 10:04:57;;;;;;;9.10;3.92;;;;;;;;;;4967994;28;20046;-74
2021/05/30 10:07:24;;;;;;;2.97;2.40;;;;;;;;;;4951714;28;20031;-75
2021/05/30 10:09:50;;;;;;;3.85;3.10;;;;;;;;;;4968037;28;20384;-73
2021/05/30 10:12:16;;;;;;;4.43;2.70;;;;;;;;;;4967591;28;20035;-74
2021/05/30 10:14:42;;;;;;;2.80;2.40;;;;;;;;;;4968000;28;20031;-74
2021/05/30 10:17:10;;;;;;;2.78;2.30;;;;;;;;;;4967706;28;20085;-76
2021/05/30 10:19:46;;;;;;;2.53;2.30;;;;;;;;;;4952747;29;20038;-74
2021/05/30 10:22:12;;;;;;;2.65;2.42;;;;;;;;;;4935620;29;20042;-77
2021/05/30 10:24:43;;;;;;;4.25;2.55;;;;;;;;;;4951780;29;20027;-75
2021/05/30 10:27:23;;;;;;;5.40;2.50;;;;;;;;;;4967418;28;20090;-76
2021/05/30 10:30:07;;;;;;;2.88;2.30;;;;;;;;;;4967758;28;20027;-75
2021/05/30 10:32:33;;;;;;;3.20;2.45;;;;;;;;;;4952922;28;20061;-74
2021/05/30 10:35:19;;;;;;;4.65;2.40;;;;;;;;;;4952371;28;20357;-74
2021/05/30 10:37:50;;;;;;;2.63;2.17;;;;;;;;;;4952620;28;20115;-74
2021/05/30 10:40:22;;;;;;;5.32;2.53;;;;;;;;;;4951060;29;20037;-74
2021/05/30 10:43:09;;;;;;;3.60;2.28;;;;;;;;;;4952126;28;20110;-74
2021/05/30 10:45:35;;;;;;;3.60;2.25;;;;;;;;;;4952337;28;20227;-75
2021/05/30 10:48:04;;;;;;;3.85;2.15;;;;;;;;;;4952528;28;20041;-74
2021/05/30 10:51:21;;;;;;;2.50;2.00;;;;;;;;;;4952934;28;20109;-74
2021/05/30 10:53:38;;;;;;;2.72;2.30;;;;;;;;;;4953723;28;20174;-74
2021/05/30 10:56:39;;;;;;;2.33;1.95;;;;;;;;;;4951947;28;20118;-74
2021/05/30 10:59:15;;;;;;;3.50;1.77;;;;;;;;;;4941844;28;20062;-75
2021/05/30 11:01:48;;;;;;;5.38;2.50;;;;;;;;;;4952694;28;20027;-75
2021/05/30 11:04:27;;;;;;;4.13;2.30;;;;;;;;;;4953081;28;20023;-76
2021/05/30 11:07:02;;;;;;;1.83;1.73;;;;;;;;;;4953417;28;20114;-74
2021/05/30 11:09:49;;;;;;;4.45;1.42;;;;;;;;;;4951565;28;20383;-74
2021/05/30 11:12:22;;;;;;;1.60;1.50;;;;;;;;;;4953024;28;20418;-75
2021/05/30 11:15:18;;;;;;;2.72;1.58;;;;;;;;;;4951729;28;20058;-75
2021/05/30 11:17:51;;;;;;;1.70;1.25;;;;;;;;;;4950233;29;20061;-74
2021/05/30 11:20:32;;;;;;;2.22;1.60;;;;;;;;;;4967487;28;20027;-74
2021/05/30 11:23:03;;;;;;;2.33;1.35;;;;;;;;;;4951648;29;20027;-74
2021/05/30 11:25:32;;;;;;;3.05;1.33;;;;;;;;;;4952138;28;20026;-75
2021/05/30 11:27:59;;;;;;;2.13;1.40;;;;;;;;;;4952515;28;20569;-75
2021/05/30 11:30:45;;;;;;;1.38;1.27;;;;;;;;;;4952261;28;20027;-75
2021/05/30 11:33:25;;;;;;;1.35;1.25;;;;;;;;;;4951476;28;20500;-76
2021/05/30 11:35:55;;;;;;;3.63;1.85;;;;;;;;;;4952317;28;20030;-78
2021/05/30 11:38:41;;;;;;;1.48;1.38;;;;;;;;;;4952744;28;20027;-79
2021/05/30 11:41:17;;;;;;;5.07;1.50;;;;;;;;;;4950498;28;20034;-77
2021/05/30 11:44:12;;;;;;;3.10;1.98;;;;;;;;;;4951833;28;20051;-79
2021/05/30 11:46:45;;;;;;;6.40;2.30;;;;;;;;;;4951665;28;20592;-80
2021/05/30 11:49:33;;;;;;;2.22;2.00;;;;;;;;;;4950827;28;20033;-78
2021/05/30 11:52:11;;;;;;;2.45;2.20;;;;;;;;;;4966331;28;20543;-78
2021/05/30 11:54:46;;;;;;;4.68;3.15;;;;;;;;;;4950106;29;20050;-78
2021/05/30 11:57:17;;;;;;;5.30;2.90;;;;;;;;;;4951963;28;20038;-80
2021/05/30 11:59:44;;;;;;;2.80;2.13;;;;;;;;;;4950425;29;20031;-77
2021/05/30 12:02:24;;;;;;;2.83;2.10;;;;;;;;;;4950254;29;20110;-78
2021/05/30 12:04:50;;;;;;;1.58;1.48;;;;;;;;;;4951680;28;20027;-78
2021/05/30 12:07:19;;;;;;;2.83;1.73;;;;;;;;;;4953294;28;20324;-78
2021/05/30 12:09:52;;;;;;;2.22;1.67;;;;;;;;;;4954106;28;20023;-78
2021/05/30 12:12:21;;;;;;;2.00;1.40;;;;;;;;;;4938217;29;20079;-78
2021/05/30 12:14:46;;;;;;;4.82;2.03;;;;;;;;;;4954177;28;20023;-78
2021/05/30 12:17:12;;;;;;;2.78;1.73;;;;;;;;;;4970063;28;20455;-79
2021/05/30 12:19:45;;;;;;;4.38;2.40;;;;;;;;;;4969602;28;20039;-77
2021/05/30 12:22:27;;;;;;;2.13;1.83;;;;;;;;;;4954092;28;20024;-78
2021/05/30 12:24:54;;;;;;;3.05;2.10;;;;;;;;;;4969904;28;20403;-77
2021/05/30 12:27:22;;;;;;;2.78;2.05;;;;;;;;;;4954919;28;20027;-77
2021/05/30 12:29:49;;;;;;;5.18;4.03;;;;;;;;;;4955264;28;20115;-78
2021/05/30 12:32:20;;;;;;;2.97;2.00;;;;;;;;;;4954079;28;20236;-78
2021/05/30 12:34:46;;;;;;;5.00;2.50;;;;;;;;;;4955499;29;20035;-78
2021/05/30 12:37:13;;;;;;;4.25;1.73;;;;;;;;;;4957157;28;20112;-77
2021/05/30 12:39:39;;;;;;;2.97;1.95;;;;;;;;;;4957709;28;20035;-77
2021/05/30 12:42:09;;;;;;;2.15;1.95;;;;;;;;;;4954112;29;20043;-78
2021/05/30 12:44:51;;;;;;;3.30;2.13;;;;;;;;;;4970149;28;20020;-80
2021/05/30 12:47:23;;;;;;;4.95;1.70;;;;;;;;;;4955723;28;20037;-76
2021/05/30 12:50:06;;;;;;;;;;;;;;;;;;4970459;28;20051;-79
2021/05/30 12:52:54;;;;;;;2.25;2.00;;;;;;;;;;4969409;28;19918;-80
2021/05/30 12:55:22;;;;;;;3.38;2.35;;;;;;;;;;4953502;29;20047;-79
2021/05/30 12:57:51;;;;;;;4.20;2.17;;;;;;;;;;4954852;29;20031;-78
2021/05/30 13:00:28;;;;;;;7.38;2.50;;;;;;;;;;4954752;28;20106;-78
2021/05/30 13:03:10;;;;;;;3.75;2.15;;;;;;;;;;4955021;28;20039;-78
2021/05/30 13:05:46;;;;;;;1.90;1.80;;;;;;;;;;4953812;29;20377;-80
2021/05/30 13:08:30;;;;;;;5.10;3.30;;;;;;;;;;4953978;28;20035;-79
2021/05/30 13:10:58;;;;;;;2.22;1.80;;;;;;;;;;4953301;29;20027;-79
2021/05/30 13:13:33;;;;;;;3.63;2.40;;;;;;;;;;4954483;28;20046;-78
2021/05/30 13:16:00;;;;;;;4.70;2.17;;;;;;;;;;4952881;28;20032;-79
2021/05/30 13:18:27;;;;;;;8.25;2.90;;;;;;;;;;4952446;28;20035;-80
2021/05/30 13:20:53;;;;;;;6.97;2.60;;;;;;;;;;4953130;28;20041;-80
2021/05/30 13:23:22;;;;;;;3.65;2.28;;;;;;;;;;4954744;28;20031;-78
2021/05/30 13:26:03;;;;;;;3.45;2.80;;;;;;;;;;4952613;28;20039;-78
2021/05/30 13:28:34;;;;;;;;;;;;;;;;;;4954237;28;20596;-78
2021/05/30 13:31:02;;;;;;;6.40;2.88;;;;;;;;;;4953856;29;20286;-77
2021/05/30 13:33:40;;;;;;;3.85;2.42;;;;;;;;;;4952115;29;20039;-79
2021/05/30 13:36:06;;;;;;;3.65;2.63;;;;;;;;;;4952190;28;20031;-77
2021/05/30 13:38:33;;;;;;;3.22;2.50;;;;;;;;;;4953423;28;20131;-78
2021/05/30 13:40:59;;;;;;;2.40;2.15;;;;;;;;;;4968636;28;20059;-79
2021/05/30 13:43:26;;;;;;;4.78;2.70;;;;;;;;;;4953344;28;20063;-79
2021/05/30 13:45:52;;;;;;;5.57;2.50;;;;;;;;;;4952525;28;20046;-78
2021/05/30 13:48:19;;;;;;;1.83;1.73;;;;;;;;;;4952178;28;20576;-79
2021/05/30 13:50:47;;;;;;;3.25;2.08;;;;;;;;;;4951858;29;20118;-77
2021/05/30 13:53:13;;;;;;;3.33;2.38;;;;;;;;;;4952545;29;20027;-78
2021/05/30 13:55:40;;;;;;;2.50;2.30;;;;;;;;;;4953608;28;20425;-77
2021/05/30 13:58:06;;;;;;;4.45;2.45;;;;;;;;;;4954210;28;20042;-78
2021/05/30 14:00:34;;;;;;;5.05;3.47;;;;;;;;;;4951394;28;20094;-81
2021/05/30 14:03:01;;;;;;;3.25;2.63;;;;;;;;;;4953349;28;20064;-78
2021/05/30 14:05:27;;;;;;;3.92;2.47;;;;;;;;;;4953345;28;20078;-79
2021/05/30 14:07:52;;;;;;;4.05;2.88;;;;;;;;;;4953038;28;20101;-79
2021/05/30 14:10:18;;;;;;;3.75;2.85;;;;;;;;;;4952354;28;20023;-79
2021/05/30 14:12:43;;;;;;;5.65;2.85;;;;;;;;;;4953824;28;20041;-78
2021/05/30 14:15:11;;;;;;;5.10;2.30;;;;;;;;;;4953777;28;20291;-79
2021/05/30 14:17:38;;;;;;;2.17;1.98;;;;;;;;;;4953086;28;20026;-78
2021/05/30 14:20:05;;;;;;;2.33;2.13;;;;;;;;;;4936955;29;20122;-77
2021/05/30 14:22:31;;;;;;;4.65;2.25;;;;;;;;;;4951895;29;20528;-79
2021/05/30 14:24:56;;;;;;;3.08;2.50;;;;;;;;;;4951553;29;20043;-79
2021/05/30 14:27:22;;;;;;;3.05;2.33;;;;;;;;;;4952658;28;20091;-77
2021/05/30 14:29:47;;;;;;;4.88;2.38;;;;;;;;;;4952039;28;20020;-77
2021/05/30 14:32:13;;;;;;;6.00;2.92;;;;;;;;;;4952958;28;20042;-79
2021/05/30 14:34:39;;;;;;;3.95;2.58;;;;;;;;;;4952794;28;20033;-78
2021/05/30 14:37:05;;;;;;;3.80;3.50;;;;;;;;;;4951293;28;20055;-79
2021/05/30 14:39:34;;;;;;;4.70;2.80;;;;;;;;;;4952309;28;20058;-80
2021/05/30 14:42:00;;;;;;;3.83;2.72;;;;;;;;;;4951207;28;20110;-80
2021/05/30 14:44:27;;;;;;;5.45;3.03;;;;;;;;;;4952966;28;20107;-80
2021/05/30 14:46:53;;;;;;;4.82;2.95;;;;;;;;;;4967985;28;20114;-80
2021/05/30 14:49:19;;;;;;;5.10;2.35;;;;;;;;;;4952854;28;20102;-79